Eunice, LA

7:12 AM CST on February 12, 2016 (GMT -0600)
Cross D Ranch | | Change Station
CLOSE
Current Station
Personal Weather Station
Location: Eunice, LA
Elevation: 49 ft
Nearby Weather Stations
Active Advisory: Dense Fog Advisory

Elev 49 ft 30.44 °N, 92.33 °W | Updated 1 minute ago

Fog
Fog
55.5 °F
Feels Like 55.5 °F
N
4.0
Wind Variable Wind from SSW
Gusts 4.0 mph

Today
High -- | Low -- °F
--% Chance of Precip.
Yesterday
High -- | Low -- °F
Precip. -- in
Pressure 30.22 in
Visibility 0.2 miles
Clouds Overcast 300 ft
Dew Point 55 °F
Humidity 98%
Rainfall 0.00 in
Snow Depth Not available.
6:53 AM 5:55 PM
Waxing Crescent, 20% visible
METAR KOPL 121255Z AUTO 00000KT 1/4SM FG OVC003 14/14 A3022 RMK AO2 T01350135
Pressure 30.22 in
Visibility 0.2 miles
Clouds Overcast 300 ft
Dew Point 55 °F
Humidity 98%
Rainfall 0.00 in
Snow Depth Not available.
6:53 AM 5:55 PM
Waxing Crescent, 20% visible
METAR KOPL 121255Z AUTO 00000KT 1/4SM FG OVC003 14/14 A3022 RMK AO2 T01350135

10-Day Weather Forecast

Almanac

Astronomy

Feb. 12, 2016 Rise Set
Actual Time
Civil Twilight
Nautical Twilight
Astronomical Twilight
Moon
Length of Visible Light
Length of Day
Tomorrow will be .
, % of the Moon is Illuminated

Today's Extremes

State Highs State Lows

Community

WunderPhotos

Upload Photos

1,892,309 photos uploaded!

WunderBlog® & News

Nearby

Air Quality

  Air Quality AQ Index Pollutant
Not available.

Snow Depth

Station Depth Elevation

Earthquake Activity

City Distance Mag. Time & Date
Minimum magnitude displayed is 2.5.

Coastal Water Temperatures

Place Temperature

Stations

Nearby Weather Stations

Station Location Temp. Windchill Dew Point Humidity Wind Precip. Elev Updated Type
                   

Watches & Warnings

Dense Fog Advisory
Issued: 4:08 AM CST Feb. 12, 2016 – National Weather Service

... Dense fog advisory in effect until 8 am CST this morning...

The National Weather Service in Lake Charles has issued a dense
fog advisory... which is in effect until 8 am CST this morning.

* Visibility... 1/4 to 1/2 of a mile.

* Impacts... motorists should use caution as children will be on
their way to school this morning and cars can suddenly appear
out of the fog.

Precautionary/preparedness actions...

A dense fog advisory means visibilities will frequently be
reduced to less than one quarter mile. If driving... slow down...
use your headlights... and leave plenty of distance ahead of you.



K. Kuyper